createdAt,value
2023-03-12T00:00:11.234Z,6.05
2023-03-12T00:02:38.551Z,7.10
2023-03-12T00:05:05.899Z,10.95
2023-03-12T00:07:33.465Z,4.85
2023-03-12T00:10:00.670Z,8.05
2023-03-12T00:12:27.876Z,6.82
2023-03-12T00:14:55.151Z,3.25
2023-03-12T00:17:22.419Z,6.38
2023-03-12T00:19:55.866Z,8.60
2023-03-12T00:22:23.115Z,6.72
2023-03-12T00:24:54.215Z,5.57
2023-03-12T00:27:21.569Z,7.47
2023-03-12T00:29:49.090Z,9.80
2023-03-12T00:32:16.357Z,7.97
2023-03-12T00:34:43.761Z,9.85
2023-03-12T00:37:11.137Z,4.95
2023-03-12T00:39:38.379Z,8.13
2023-03-12T00:42:05.453Z,13.63
2023-03-12T00:44:32.664Z,7.45
2023-03-12T00:46:59.881Z,5.88
2023-03-12T00:49:27.388Z,5.85
2023-03-12T00:51:55.149Z,6.50
2023-03-12T00:54:22.456Z,6.40
2023-03-12T00:56:49.721Z,4.68
2023-03-12T00:59:17.542Z,6.03
2023-03-12T01:01:44.950Z,3.28
2023-03-12T01:04:12.270Z,7.28
2023-03-12T01:06:39.512Z,8.65
2023-03-12T01:09:07.760Z,5.28
2023-03-12T01:11:35.214Z,3.78
2023-03-12T01:14:04.066Z,3.60
2023-03-12T01:16:31.442Z,3.55
2023-03-12T01:19:00.254Z,6.38
2023-03-12T01:21:28.868Z,10.05
2023-03-12T01:23:56.822Z,5.03
2023-03-12T01:26:24.076Z,2.40
2023-03-12T01:28:51.635Z,6.55
2023-03-12T01:31:19.243Z,5.68
2023-03-12T01:33:50.444Z,5.57
2023-03-12T01:36:20.765Z,4.30
2023-03-12T01:38:48.305Z,9.73
2023-03-12T01:41:15.555Z,5.80
2023-03-12T01:43:43.177Z,4.32
2023-03-12T01:46:31.759Z,7.65
2023-03-12T01:49:04.531Z,4.20
2023-03-12T01:51:52.496Z,5.95
2023-03-12T01:54:33.657Z,3.78
2023-03-12T01:57:04.334Z,5.03
2023-03-12T01:59:41.781Z,4.82
2023-03-12T02:02:09.171Z,10.48
2023-03-12T02:04:38.891Z,6.22
2023-03-12T02:07:08.804Z,4.20
2023-03-12T02:09:39.944Z,5.15
2023-03-12T02:12:07.739Z,7.15
2023-03-12T02:14:35.312Z,7.43
2023-03-12T02:17:03.485Z,4.88
2023-03-12T02:19:55.332Z,7.82
2023-03-12T02:22:28.824Z,7.32
2023-03-12T02:25:03.859Z,4.47
2023-03-12T02:27:36.660Z,4.50
2023-03-12T02:30:05.205Z,3.72
2023-03-12T02:32:38.369Z,3.53
2023-03-12T02:35:06.903Z,4.72
2023-03-12T02:37:34.128Z,9.40
2023-03-12T02:40:18.075Z,5.13
2023-03-12T02:42:46.124Z,5.45
2023-03-12T02:45:13.575Z,7.82
2023-03-12T02:47:40.746Z,11.38
2023-03-12T02:50:09.352Z,3.97
2023-03-12T02:52:37.984Z,5.97
2023-03-12T02:55:05.832Z,5.18
2023-03-12T02:57:33.800Z,5.97
2023-03-12T03:00:01.145Z,3.83
2023-03-12T03:02:29.516Z,5.75
2023-03-12T03:04:56.927Z,5.15
2023-03-12T03:07:24.183Z,6.00
2023-03-12T03:09:51.439Z,2.75
2023-03-12T03:12:18.692Z,4.05
2023-03-12T03:14:46.028Z,3.80
2023-03-12T03:17:13.241Z,3.10
2023-03-12T03:19:40.530Z,6.20
2023-03-12T03:22:07.858Z,6.13
2023-03-12T03:24:36.200Z,2.88
2023-03-12T03:27:03.504Z,11.50
2023-03-12T03:29:30.820Z,5.15
2023-03-12T03:31:59.443Z,3.08
2023-03-12T03:34:26.715Z,2.70
2023-03-12T03:36:54.009Z,4.22
2023-03-12T03:39:21.730Z,3.13
2023-03-12T03:41:49.063Z,5.78
2023-03-12T03:46:47.964Z,4.28
2023-03-12T03:49:16.804Z,5.03
2023-03-12T03:51:44.705Z,5.55
2023-03-12T03:54:15.473Z,7.20
2023-03-12T03:56:44.678Z,6.97
2023-03-12T03:59:12.717Z,3.40
2023-03-12T04:01:42.579Z,4.68
2023-03-12T04:04:10.104Z,5.78
2023-03-12T04:06:37.353Z,4.63
2023-03-12T04:09:05.245Z,4.45
2023-03-12T04:11:34.201Z,4.30
2023-03-12T04:14:02.784Z,4.18
2023-03-12T04:16:32.765Z,5.45
2023-03-12T04:19:02.472Z,6.15
2023-03-12T04:21:29.729Z,3.53
2023-03-12T04:23:56.977Z,5.68
2023-03-12T04:26:28.598Z,7.70
2023-03-12T04:28:56.798Z,7.20
2023-03-12T04:31:24.131Z,3.83
2023-03-12T04:33:51.859Z,2.90
2023-03-12T04:36:22.264Z,7.28
2023-03-12T04:38:51.164Z,4.40
2023-03-12T04:41:22.694Z,4.57
2023-03-12T04:43:55.238Z,6.45
2023-03-12T04:46:23.179Z,3.90
2023-03-12T04:48:50.700Z,4.88
2023-03-12T04:51:18.122Z,2.97
2023-03-12T04:53:45.499Z,5.05
2023-03-12T04:56:14.130Z,3.50
2023-03-12T04:58:43.035Z,5.07
2023-03-12T05:01:27.239Z,4.35
2023-03-12T05:03:54.985Z,2.90
2023-03-12T05:06:23.305Z,7.65
2023-03-12T05:08:53.070Z,4.03
2023-03-12T05:11:20.852Z,2.85
2023-03-12T05:13:48.532Z,7.60
2023-03-12T05:16:16.167Z,4.75
2023-03-12T05:18:43.839Z,3.47
2023-03-12T05:21:16.651Z,3.30
2023-03-12T05:23:44.564Z,3.80
2023-03-12T05:26:24.531Z,5.88
2023-03-12T05:28:56.002Z,6.18
2023-03-12T05:31:24.929Z,2.95
2023-03-12T05:33:53.122Z,3.85
2023-03-12T05:36:22.639Z,2.28
2023-03-12T05:38:50.152Z,2.55
2023-03-12T05:41:30.104Z,2.80
2023-03-12T05:44:01.752Z,2.38
2023-03-12T05:46:29.834Z,7.05
2023-03-12T05:48:58.934Z,10.43
2023-03-12T05:51:26.740Z,4.15
2023-03-12T05:53:54.104Z,3.83
2023-03-12T05:56:21.432Z,5.88
2023-03-12T05:58:49.999Z,3.47
2023-03-12T06:03:56.360Z,5.70
2023-03-12T06:06:25.330Z,3.90
2023-03-12T06:08:52.728Z,6.50
2023-03-12T06:11:20.053Z,8.07
2023-03-12T06:13:48.635Z,3.05
2023-03-12T06:16:18.775Z,6.78
2023-03-12T06:21:21.542Z,4.05
2023-03-12T06:23:49.252Z,3.60
2023-03-12T06:26:22.928Z,7.05
2023-03-12T06:28:50.496Z,4.25
2023-03-12T06:31:18.120Z,5.78
2023-03-12T06:33:45.488Z,4.72
2023-03-12T06:36:13.428Z,6.22
2023-03-12T06:38:41.298Z,4.47
2023-03-12T06:41:10.973Z,6.00
2023-03-12T06:43:38.704Z,4.93
2023-03-12T06:46:08.045Z,3.95
2023-03-12T06:48:36.850Z,5.23
2023-03-12T06:51:05.124Z,6.45
2023-03-12T06:53:32.793Z,6.10
2023-03-12T06:56:00.032Z,6.85
2023-03-12T06:58:27.281Z,5.75
2023-03-12T07:00:54.991Z,3.35
2023-03-12T07:03:22.252Z,8.88
2023-03-12T07:05:51.315Z,5.90
2023-03-12T07:08:18.918Z,10.95
2023-03-12T07:10:46.439Z,4.65
2023-03-12T07:13:14.115Z,5.93
2023-03-12T07:15:41.449Z,6.10
2023-03-12T07:18:11.066Z,5.18
2023-03-12T07:20:40.231Z,6.40
2023-03-12T07:23:07.527Z,11.35
2023-03-12T07:25:39.198Z,6.20
2023-03-12T07:28:06.560Z,6.28
2023-03-12T07:30:34.021Z,10.68
2023-03-12T07:33:02.294Z,5.75
2023-03-12T07:35:30.196Z,3.50
2023-03-12T07:37:58.343Z,5.47
2023-03-12T07:40:25.654Z,7.38
2023-03-12T07:42:53.023Z,39.33
2023-03-12T07:45:20.991Z,26.95
2023-03-12T07:47:49.695Z,20.38
2023-03-12T07:50:17.854Z,11.30
2023-03-12T07:52:45.882Z,9.65
2023-03-12T07:55:13.592Z,7.82
2023-03-12T07:57:41.031Z,7.75
2023-03-12T08:00:10.608Z,9.73
2023-03-12T08:02:41.165Z,6.40
2023-03-12T08:05:08.744Z,4.82
2023-03-12T08:07:36.350Z,6.93
2023-03-12T08:10:06.822Z,7.38
2023-03-12T08:12:37.314Z,12.15
2023-03-12T08:15:06.280Z,7.90
2023-03-12T08:17:33.545Z,9.45
2023-03-12T08:20:00.782Z,10.93
2023-03-12T08:22:28.505Z,7.38
2023-03-12T08:24:58.344Z,8.30
2023-03-12T08:28:09.750Z,7.35
2023-03-12T08:30:36.734Z,9.07
2023-03-12T08:33:06.860Z,9.48
2023-03-12T08:38:01.784Z,4.63
2023-03-12T08:40:29.268Z,7.65
2023-03-12T08:42:56.552Z,13.38
2023-03-12T08:45:23.924Z,4.68
2023-03-12T08:47:53.294Z,5.93
2023-03-12T08:50:22.293Z,12.10
2023-03-12T08:52:49.760Z,3.70
2023-03-12T08:55:16.831Z,8.00
2023-03-12T08:57:44.123Z,4.82
2023-03-12T09:00:16.340Z,9.88
2023-03-12T09:02:45.120Z,4.78
2023-03-12T09:05:12.485Z,9.55
2023-03-12T09:07:39.759Z,8.32
2023-03-12T09:10:07.648Z,7.47
2023-03-12T09:12:38.710Z,5.25
2023-03-12T09:15:11.514Z,10.25
2023-03-12T09:18:14.489Z,4.53
2023-03-12T09:20:45.698Z,6.22
2023-03-12T09:23:15.257Z,4.35
2023-03-12T09:25:46.549Z,12.55
2023-03-12T09:28:16.518Z,9.52
2023-03-12T09:30:43.589Z,6.85
2023-03-12T09:33:10.960Z,7.82
2023-03-12T09:35:38.274Z,12.02
2023-03-12T09:38:05.787Z,7.32
2023-03-12T09:40:40.346Z,5.65
2023-03-12T09:43:24.295Z,6.75
2023-03-12T09:45:55.431Z,4.85
2023-03-12T09:48:34.041Z,5.93
2023-03-12T09:51:09.424Z,4.50
2023-03-12T09:53:55.373Z,10.07
2023-03-12T09:56:27.028Z,7.18
2023-03-12T09:58:58.564Z,3.95
2023-03-12T10:01:38.151Z,3.08
2023-03-12T10:04:16.289Z,3.25
2023-03-12T10:06:45.208Z,6.93
2023-03-12T10:09:39.825Z,5.10
2023-03-12T10:12:36.580Z,5.22
2023-03-12T10:15:28.658Z,11.23
2023-03-12T10:18:36.734Z,12.38
2023-03-12T10:21:14.121Z,11.45
2023-03-12T10:23:41.301Z,8.18
2023-03-12T10:26:16.446Z,7.43
2023-03-12T10:28:49.231Z,5.75
2023-03-12T10:31:33.357Z,10.27
2023-03-12T10:34:21.229Z,7.53
2023-03-12T10:36:48.570Z,3.63
2023-03-12T10:39:20.085Z,7.93
2023-03-12T10:41:48.551Z,9.65
2023-03-12T10:44:22.770Z,5.65
2023-03-12T10:47:24.839Z,8.30
2023-03-12T10:49:55.761Z,12.93
2023-03-12T10:52:25.671Z,3.50
2023-03-12T10:54:53.601Z,3.53
2023-03-12T10:57:21.232Z,11.35
2023-03-12T10:59:50.172Z,10.52
2023-03-12T11:02:43.265Z,8.45
2023-03-12T11:05:49.153Z,6.30
2023-03-12T11:08:29.786Z,6.25
2023-03-12T11:10:59.343Z,6.80
2023-03-12T11:13:38.308Z,8.60
2023-03-12T11:16:17.425Z,8.95
2023-03-12T11:19:25.811Z,6.68
2023-03-12T11:22:02.180Z,8.35
2023-03-12T11:24:30.581Z,7.18
2023-03-12T11:27:32.784Z,4.25
2023-03-12T11:30:28.574Z,5.70
2023-03-12T11:32:59.009Z,4.80
2023-03-12T11:35:58.059Z,8.45
2023-03-12T11:38:42.438Z,7.25
2023-03-12T11:41:23.317Z,9.02
2023-03-12T11:44:31.617Z,24.95
2023-03-12T11:47:16.665Z,9.48
2023-03-12T11:50:05.546Z,8.38
2023-03-12T11:52:55.114Z,6.25
2023-03-12T11:55:34.190Z,9.07
2023-03-12T11:58:19.871Z,5.05
2023-03-12T12:01:14.293Z,11.07
2023-03-12T12:04:06.578Z,6.55
2023-03-12T12:06:52.860Z,5.65
2023-03-12T12:09:44.452Z,8.20
2023-03-12T12:12:21.284Z,5.20
2023-03-12T12:14:48.494Z,22.30
2023-03-12T12:17:45.508Z,7.40
2023-03-12T12:20:44.608Z,5.55
2023-03-12T12:23:26.770Z,6.75
2023-03-12T12:26:17.730Z,8.10
2023-03-12T12:29:05.503Z,10.98
2023-03-12T12:31:50.554Z,7.78
2023-03-12T12:34:37.506Z,5.88
2023-03-12T12:37:35.250Z,9.35
2023-03-12T12:40:30.759Z,6.32
2023-03-12T12:43:33.467Z,5.97
2023-03-12T12:46:05.913Z,11.73
2023-03-12T12:48:52.151Z,9.45
2023-03-12T12:52:05.014Z,5.60
2023-03-12T12:54:33.298Z,8.82
2023-03-12T12:57:00.572Z,5.40
2023-03-12T12:59:50.605Z,5.80
2023-03-12T13:02:21.917Z,7.18
2023-03-12T13:04:49.638Z,7.30
2023-03-12T13:07:16.996Z,4.45
2023-03-12T13:10:32.503Z,5.55
2023-03-12T13:13:09.539Z,4.65
2023-03-12T13:15:43.792Z,4.43
2023-03-12T13:18:29.150Z,9.65
2023-03-12T13:21:12.430Z,2.58
2023-03-12T13:24:08.542Z,11.82
2023-03-12T13:27:00.455Z,6.55
2023-03-12T13:29:31.397Z,9.00
2023-03-12T13:31:58.813Z,5.32
2023-03-12T13:34:46.814Z,11.73
2023-03-12T13:37:27.826Z,5.55
2023-03-12T13:39:55.356Z,9.38
2023-03-12T13:42:26.945Z,3.72
2023-03-12T13:44:54.422Z,9.68
2023-03-12T13:47:30.782Z,6.95
2023-03-12T13:50:10.662Z,6.80
2023-03-12T13:52:55.531Z,4.13
2023-03-12T13:55:27.287Z,7.25
2023-03-12T13:58:00.722Z,4.93
2023-03-12T14:00:36.594Z,4.18
2023-03-12T14:03:11.885Z,5.20
2023-03-12T14:05:53.465Z,5.63
2023-03-12T14:08:45.734Z,7.78
2023-03-12T14:11:50.601Z,9.23
2023-03-12T14:14:48.396Z,4.13
2023-03-12T14:17:23.658Z,4.03
2023-03-12T14:20:19.841Z,4.88
2023-03-12T14:23:00.218Z,7.35
2023-03-12T14:27:59.552Z,3.55
2023-03-12T14:30:41.067Z,9.73
2023-03-12T14:33:08.500Z,9.68
2023-03-12T14:35:43.582Z,6.32
2023-03-12T14:38:37.257Z,4.38
2023-03-12T14:41:04.565Z,4.35
2023-03-12T14:43:34.673Z,5.68
2023-03-12T14:46:04.855Z,3.53
2023-03-12T14:48:37.034Z,6.32
2023-03-12T14:51:05.960Z,5.35
2023-03-12T14:53:38.095Z,5.20
2023-03-12T14:56:08.322Z,4.45
2023-03-12T14:58:42.021Z,4.40
2023-03-12T15:01:15.274Z,6.63
2023-03-12T15:03:48.520Z,7.03
2023-03-12T15:06:20.048Z,5.35
2023-03-12T15:08:49.074Z,5.03
2023-03-12T15:11:21.981Z,3.50
2023-03-12T15:13:49.746Z,4.05
2023-03-12T15:16:17.217Z,4.82
2023-03-12T15:18:45.176Z,4.95
2023-03-12T15:21:12.710Z,3.80
2023-03-12T15:23:42.891Z,3.35
2023-03-12T15:26:22.174Z,5.32
2023-03-12T15:29:29.368Z,6.18
2023-03-12T15:32:00.792Z,5.07
2023-03-12T15:34:27.948Z,5.57
2023-03-12T15:36:55.532Z,4.65
2023-03-12T15:39:36.879Z,3.53
2023-03-12T15:42:15.726Z,5.65
2023-03-12T15:44:49.182Z,5.55
2023-03-12T15:47:22.609Z,6.40
2023-03-12T15:49:56.888Z,5.13
2023-03-12T15:52:32.565Z,3.83
2023-03-12T15:55:14.121Z,4.05
2023-03-12T15:57:52.791Z,3.20
2023-03-12T16:00:32.143Z,3.50
2023-03-12T16:03:06.067Z,4.18
2023-03-12T16:05:35.866Z,3.17
2023-03-12T16:08:21.088Z,5.60
2023-03-12T16:10:50.023Z,3.55
2023-03-12T16:13:27.338Z,4.95
2023-03-12T16:15:54.867Z,3.67
2023-03-12T16:18:22.937Z,12.93
2023-03-12T16:20:52.668Z,3.33
2023-03-12T16:23:20.216Z,4.43
2023-03-12T16:25:53.298Z,4.18
2023-03-12T16:28:22.455Z,4.00
2023-03-12T16:30:51.302Z,4.85
2023-03-12T16:33:22.067Z,3.25
2023-03-12T16:35:57.785Z,2.63
2023-03-12T16:38:25.212Z,2.85
2023-03-12T16:40:52.802Z,3.58
2023-03-12T16:43:25.488Z,6.00
2023-03-12T16:45:54.220Z,5.65
2023-03-12T16:48:26.625Z,3.42
2023-03-12T16:51:00.770Z,4.40
2023-03-12T16:53:28.184Z,3.30
2023-03-12T16:55:56.837Z,4.70
2023-03-12T16:58:25.743Z,4.65
2023-03-12T17:00:54.459Z,5.20
2023-03-12T17:03:38.080Z,4.45
2023-03-12T17:06:06.918Z,7.32
2023-03-12T17:08:36.017Z,4.20
2023-03-12T17:11:15.257Z,3.90
2023-03-12T17:13:43.019Z,4.28
2023-03-12T17:16:12.743Z,5.50
2023-03-12T17:18:41.071Z,4.95
2023-03-12T17:21:12.350Z,9.35
2023-03-12T17:23:40.107Z,5.32
2023-03-12T17:26:07.611Z,14.40
2023-03-12T17:28:35.055Z,14.23
2023-03-12T17:31:02.754Z,14.40
2023-03-12T17:33:30.338Z,10.38
2023-03-12T17:36:03.001Z,25.95
2023-03-12T17:38:30.779Z,9.35
2023-03-12T17:41:00.082Z,8.07
2023-03-12T17:43:28.090Z,10.15
2023-03-12T17:45:55.749Z,17.55
2023-03-12T17:48:23.729Z,12.90
2023-03-12T17:50:51.373Z,14.77
2023-03-12T17:53:18.977Z,12.77
2023-03-12T17:55:49.326Z,6.63
2023-03-12T18:00:53.726Z,20.27
2023-03-12T18:03:23.948Z,10.18
2023-03-12T18:08:18.441Z,11.63
2023-03-12T18:10:48.241Z,9.30
2023-03-12T18:13:15.638Z,11.20
2023-03-12T18:15:43.167Z,13.20
2023-03-12T18:18:10.949Z,11.48
2023-03-12T18:20:39.975Z,12.43
2023-03-12T18:23:07.834Z,13.88
2023-03-12T18:25:35.482Z,10.70
2023-03-12T18:28:03.128Z,13.40
2023-03-12T18:30:30.585Z,9.30
2023-03-12T18:33:02.704Z,11.43
2023-03-12T18:35:30.626Z,13.88
2023-03-12T18:38:02.303Z,14.30
2023-03-12T18:40:29.819Z,16.80
2023-03-12T18:43:19.256Z,12.50
2023-03-12T18:45:51.906Z,18.75
2023-03-12T18:51:17.865Z,11.65
2023-03-12T18:53:48.612Z,16.83
2023-03-12T18:56:16.315Z,16.25
2023-03-12T18:58:44.636Z,19.23
2023-03-12T19:01:21.548Z,16.10
2023-03-12T19:03:52.792Z,11.55
2023-03-12T19:06:20.402Z,12.15
2023-03-12T19:08:47.912Z,14.63
2023-03-12T19:11:16.480Z,12.07
2023-03-12T19:13:44.599Z,13.00
2023-03-12T19:16:16.314Z,14.63
2023-03-12T19:18:43.865Z,12.85
2023-03-12T19:21:11.357Z,14.57
2023-03-12T19:26:50.842Z,12.77
2023-03-12T19:29:28.958Z,13.73
2023-03-12T19:31:56.062Z,13.93
2023-03-12T19:34:23.251Z,14.80
2023-03-12T19:36:50.605Z,12.55
2023-03-12T19:39:21.730Z,15.10
2023-03-12T19:41:49.953Z,23.75
2023-03-12T19:44:17.059Z,15.15
2023-03-12T19:46:44.076Z,16.65
2023-03-12T19:49:11.029Z,17.05
2023-03-12T19:51:40.213Z,18.30
2023-03-12T19:54:07.974Z,16.75
2023-03-12T19:56:34.850Z,16.08
2023-03-12T19:59:01.735Z,12.57
2023-03-12T20:01:28.638Z,17.77
2023-03-12T20:03:55.638Z,14.88
2023-03-12T20:06:22.575Z,13.88
2023-03-12T20:08:49.861Z,15.05
2023-03-12T20:11:16.918Z,20.17
2023-03-12T20:13:43.842Z,18.08
2023-03-12T20:16:13.193Z,11.25
2023-03-12T20:18:40.070Z,15.70
2023-03-12T20:21:07.037Z,19.83
2023-03-12T20:23:34.093Z,16.85
2023-03-12T20:26:01.025Z,16.27
2023-03-12T20:28:27.970Z,14.52
2023-03-12T20:30:57.585Z,17.98
2023-03-12T20:33:24.567Z,27.85
2023-03-12T20:35:52.853Z,17.25
2023-03-12T20:38:19.769Z,18.27
2023-03-12T20:40:46.846Z,19.95
2023-03-12T20:43:13.874Z,24.30
2023-03-12T20:45:41.000Z,21.05
2023-03-12T20:48:07.958Z,18.13
2023-03-12T20:50:38.951Z,21.42
2023-03-12T20:53:06.284Z,28.25
2023-03-12T20:55:33.673Z,20.45
2023-03-12T20:58:00.609Z,16.38
2023-03-12T21:00:27.708Z,20.75
2023-03-12T21:02:54.706Z,18.92
2023-03-12T21:05:24.858Z,16.58
2023-03-12T21:10:19.913Z,24.33
2023-03-12T21:12:47.178Z,20.40
2023-03-12T21:15:14.158Z,22.70
2023-03-12T21:17:41.340Z,19.75
2023-03-12T21:20:13.455Z,22.70
2023-03-12T21:22:43.369Z,22.25
2023-03-12T21:25:11.730Z,15.18
2023-03-12T21:27:49.776Z,17.25
2023-03-12T21:30:18.899Z,20.33
2023-03-12T21:32:45.816Z,18.90
2023-03-12T21:35:12.936Z,24.50
2023-03-12T21:37:40.077Z,24.40
2023-03-12T21:40:09.229Z,20.98
2023-03-12T21:42:36.607Z,23.00
2023-03-12T21:45:04.437Z,22.65
2023-03-12T21:47:31.870Z,12.45
2023-03-12T21:49:58.961Z,25.27
2023-03-12T21:52:25.848Z,24.38
2023-03-12T21:54:52.806Z,23.17
2023-03-12T21:57:19.858Z,17.23
2023-03-12T21:59:46.860Z,11.80
2023-03-12T22:02:14.829Z,19.70
2023-03-12T22:04:42.190Z,27.70
2023-03-12T22:07:09.349Z,23.50
2023-03-12T22:09:36.377Z,22.50
2023-03-12T22:12:04.009Z,19.92
2023-03-12T22:14:31.156Z,22.95
2023-03-12T22:16:58.183Z,23.13
2023-03-12T22:19:25.196Z,27.45
2023-03-12T22:21:52.285Z,24.98
2023-03-12T22:24:19.200Z,15.45
2023-03-12T22:26:46.633Z,12.85
2023-03-12T22:29:13.744Z,21.48
2023-03-12T22:31:40.805Z,21.55
2023-03-12T22:34:07.772Z,18.40
2023-03-12T22:36:34.798Z,21.00
2023-03-12T22:39:01.714Z,22.88
2023-03-12T22:41:30.111Z,20.65
2023-03-12T22:44:01.493Z,14.98
2023-03-12T22:46:29.125Z,19.05
2023-03-12T22:48:58.590Z,21.05
2023-03-12T22:51:26.311Z,20.43
2023-03-12T22:53:53.514Z,24.58
2023-03-12T22:56:21.119Z,21.98
2023-03-12T22:58:48.912Z,18.42
2023-03-12T23:01:21.186Z,17.02
2023-03-12T23:03:49.212Z,22.25
2023-03-12T23:06:19.300Z,17.20
2023-03-12T23:08:47.894Z,20.98
2023-03-12T23:11:16.185Z,24.13
2023-03-12T23:13:44.960Z,18.50
2023-03-12T23:16:17.991Z,21.85
2023-03-12T23:18:45.556Z,27.65
2023-03-12T23:21:15.541Z,25.77
2023-03-12T23:23:43.579Z,34.58
2023-03-12T23:26:19.482Z,21.02
2023-03-12T23:28:47.439Z,22.70
2023-03-12T23:31:16.150Z,27.55
2023-03-12T23:33:43.990Z,27.10
2023-03-12T23:36:17.940Z,22.38
2023-03-12T23:38:45.519Z,23.00
2023-03-12T23:41:24.472Z,16.98
2023-03-12T23:43:52.315Z,16.00
2023-03-12T23:46:19.841Z,33.08
2023-03-12T23:48:47.491Z,21.85
2023-03-12T23:51:23.919Z,29.88
2023-03-12T23:53:55.460Z,17.55
2023-03-12T23:56:24.860Z,24.05
2023-03-12T23:58:51.954Z,23.50
